Watersmeet, Michigan
Current Conditions -  °F | °C
As of 7:55 AM on Friday 31 Oct 2014 (Local Time) from KLNL Reporting Station
Overcast Overcast  
Wind Chill: 16°   Ceiling: 1700
Heat Index: 27°   Visibility: 10mi
Dew Point: 23°   Wind: 13mph
Humidity: 88%   Direction: 10°N
Pressure: 30.33"   Gusts: 20mph
Location:  46.27°N, 89.18°W
Report Text: KLNL 311255Z AUTO 01011G17KT 10SM OVC017 M03/M05 A3033 RMK AO2 T10301048
Loading
Personal Weather Stations






























Interactive Weather Map
Tropical Storm Tracking
New forecast layout! Learn more

10-Day Weather Forecast

Advertisements
Track Severe Weather on mobile